Aviation Digital Data Service (ADDS)

Output produced by METARs form (0835 UTC 18 February 2019)
found at http://www.aviationweather.gov/metar/data/
 
METAR text: LHBP 180830Z VRB01KT 3200 BR NSC 05/05 Q1026 BECMG 5000 BR
Conditions at: LHBP (BUDAPEST/FERIHEG, HU) observed 0830 UTC 18 February 2019
Temperature: 5.0°C (41°F)
Dewpoint: 5.0°C (41°F) [RH = 100%]
Pressure (altimeter): 30.30 inches Hg (1026.0 mb)
Winds: variable direction winds at 1 MPH (1 knots; 0.5 m/s)
Visibility: 1.99 miles (3.20 km)
Ceiling: at least 12,000 feet AGL
Clouds: sky clear below 12,000 feet AGL
Weather: BR  (mist)

METAR text: LHBP 180800Z VRB01KT 2800 BR NSC 03/03 Q1026 NOSIG
Conditions at: LHBP (BUDAPEST/FERIHEG, HU) observed 0800 UTC 18 February 2019
Temperature: 3.0°C (37°F)
Dewpoint: 3.0°C (37°F) [RH = 100%]
Pressure (altimeter): 30.30 inches Hg (1026.0 mb)
Winds: variable direction winds at 1 MPH (1 knots; 0.5 m/s)
Visibility: 1.74 miles (2.80 km)
Ceiling: at least 12,000 feet AGL
Clouds: sky clear below 12,000 feet AGL
Weather: BR  (mist)

METAR text: LHBP 180730Z 00000KT 2500 1200E BCFG BR NSC 01/01 Q1026 NOSIG
Conditions at: LHBP (BUDAPEST/FERIHEG, HU) observed 0730 UTC 18 February 2019
Temperature: 1.0°C (34°F)
Dewpoint: 1.0°C (34°F) [RH = 100%]
Pressure (altimeter): 30.30 inches Hg (1026.0 mb)
Winds: calm
Visibility: 1.55 miles (2.49 km)
Ceiling: at least 12,000 feet AGL
Clouds: sky clear below 12,000 feet AGL
Weather: BCFG BR  (patches of fog, mist)

METAR text: LHBP 180700Z VRB01KT 2500 1200SE FZBCFG BR NSC M02/M02 Q1026 NOSIG
Conditions at: LHBP (BUDAPEST/FERIHEG, HU) observed 0700 UTC 18 February 2019
Temperature: -2.0°C (28°F)
Dewpoint: -2.0°C (28°F) [RH = 100%]
Pressure (altimeter): 30.30 inches Hg (1026.0 mb)
Winds: variable direction winds at 1 MPH (1 knots; 0.5 m/s)
Visibility: 1.55 miles (2.49 km)
Ceiling: at least 12,000 feet AGL
Clouds: sky clear below 12,000 feet AGL
Weather: BCFG BR  (patches of fog, mist)

METAR text: LHBP 180630Z VRB01KT 2500 BR NSC M03/M03 Q1026 NOSIG
Conditions at: LHBP (BUDAPEST/FERIHEG, HU) observed 0630 UTC 18 February 2019
Temperature: -3.0°C (27°F)
Dewpoint: -3.0°C (27°F) [RH = 100%]
Pressure (altimeter): 30.30 inches Hg (1026.0 mb)
Winds: variable direction winds at 1 MPH (1 knots; 0.5 m/s)
Visibility: 1.55 miles (2.49 km)
Ceiling: at least 12,000 feet AGL
Clouds: sky clear below 12,000 feet AGL
Weather: BR  (mist)

METAR text: LHBP 180600Z 00000KT 3000 FZMIFG BR NSC M04/M04 Q1026 TEMPO 2000 FZBCFG BR
Conditions at: LHBP (BUDAPEST/FERIHEG, HU) observed 0600 UTC 18 February 2019
Temperature: -4.0°C (25°F)
Dewpoint: -4.0°C (25°F) [RH = 100%]
Pressure (altimeter): 30.30 inches Hg (1026.0 mb)
Winds: calm
Visibility: 1.86 miles (2.99 km)
Ceiling: at least 12,000 feet AGL
Clouds: sky clear below 12,000 feet AGL
Weather: FZMIFG BR  (unknown weather, mist)

METAR text: LHBP 180530Z VRB03KT 3000 BR NSC M04/M04 Q1025 BECMG 2000 BR
Conditions at: LHBP (BUDAPEST/FERIHEG, HU) observed 0530 UTC 18 February 2019
Temperature: -4.0°C (25°F)
Dewpoint: -4.0°C (25°F) [RH = 100%]
Pressure (altimeter): 30.27 inches Hg (1025.0 mb)
Winds: variable direction winds at 3 MPH (3 knots; 1.5 m/s)
Visibility: 1.86 miles (2.99 km)
Ceiling: at least 12,000 feet AGL
Clouds: sky clear below 12,000 feet AGL
Weather: BR  (mist)

METAR text: LHBP 180500Z VRB03KT 3000 BR NSC M04/M04 Q1025 BECMG 2000 BR
Conditions at: LHBP (BUDAPEST/FERIHEG, HU) observed 0500 UTC 18 February 2019
Temperature: -4.0°C (25°F)
Dewpoint: -4.0°C (25°F) [RH = 100%]
Pressure (altimeter): 30.27 inches Hg (1025.0 mb)
Winds: variable direction winds at 3 MPH (3 knots; 1.5 m/s)
Visibility: 1.86 miles (2.99 km)
Ceiling: at least 12,000 feet AGL
Clouds: sky clear below 12,000 feet AGL
Weather: BR  (mist)

METAR text: LHBP 180430Z VRB03KT 3500 BR NSC M04/M04 Q1025 BECMG FM0500 2000 BR
Conditions at: LHBP (BUDAPEST/FERIHEG, HU) observed 0430 UTC 18 February 2019
Temperature: -4.0°C (25°F)
Dewpoint: -4.0°C (25°F) [RH = 100%]
Pressure (altimeter): 30.27 inches Hg (1025.0 mb)
Winds: variable direction winds at 3 MPH (3 knots; 1.5 m/s)
Visibility: 2.17 miles (3.49 km)
Ceiling: at least 12,000 feet AGL
Clouds: sky clear below 12,000 feet AGL
Weather: BR  (mist)

METAR text: LHBP 180400Z VRB03KT 3500 BR NSC M05/M05 Q1025 BECMG FM0500 2000 BR
Conditions at: LHBP (BUDAPEST/FERIHEG, HU) observed 0400 UTC 18 February 2019
Temperature: -5.0°C (23°F)
Dewpoint: -5.0°C (23°F) [RH = 100%]
Pressure (altimeter): 30.27 inches Hg (1025.0 mb)
Winds: variable direction winds at 3 MPH (3 knots; 1.5 m/s)
Visibility: 2.17 miles (3.49 km)
Ceiling: at least 12,000 feet AGL
Clouds: sky clear below 12,000 feet AGL
Weather: BR  (mist)

METAR text: LHBP 180330Z VRB03KT 3500 BR NSC M04/M04 Q1025 BECMG FM0500 2000 BR
Conditions at: LHBP (BUDAPEST/FERIHEG, HU) observed 0330 UTC 18 February 2019
Temperature: -4.0°C (25°F)
Dewpoint: -4.0°C (25°F) [RH = 100%]
Pressure (altimeter): 30.27 inches Hg (1025.0 mb)
Winds: variable direction winds at 3 MPH (3 knots; 1.5 m/s)
Visibility: 2.17 miles (3.49 km)
Ceiling: at least 12,000 feet AGL
Clouds: sky clear below 12,000 feet AGL
Weather: BR  (mist)

METAR text: LHBP 180300Z VRB02KT 3500 BR NSC M05/M05 Q1025 NOSIG
Conditions at: LHBP (BUDAPEST/FERIHEG, HU) observed 0300 UTC 18 February 2019
Temperature: -5.0°C (23°F)
Dewpoint: -5.0°C (23°F) [RH = 100%]
Pressure (altimeter): 30.27 inches Hg (1025.0 mb)
Winds: variable direction winds at 2 MPH (2 knots; 1.0 m/s)
Visibility: 2.17 miles (3.49 km)
Ceiling: at least 12,000 feet AGL
Clouds: sky clear below 12,000 feet AGL
Weather: BR  (mist)

METAR text: LHBP 180230Z VRB02KT 3500 BR NSC M04/M04 Q1025 NOSIG
Conditions at: LHBP (BUDAPEST/FERIHEG, HU) observed 0230 UTC 18 February 2019
Temperature: -4.0°C (25°F)
Dewpoint: -4.0°C (25°F) [RH = 100%]
Pressure (altimeter): 30.27 inches Hg (1025.0 mb)
Winds: variable direction winds at 2 MPH (2 knots; 1.0 m/s)
Visibility: 2.17 miles (3.49 km)
Ceiling: at least 12,000 feet AGL
Clouds: sky clear below 12,000 feet AGL
Weather: BR  (mist)

METAR text: LHBP 180200Z VRB02KT 3500 BR NSC M03/M03 Q1026 NOSIG
Conditions at: LHBP (BUDAPEST/FERIHEG, HU) observed 0200 UTC 18 February 2019
Temperature: -3.0°C (27°F)
Dewpoint: -3.0°C (27°F) [RH = 100%]
Pressure (altimeter): 30.30 inches Hg (1026.0 mb)
Winds: variable direction winds at 2 MPH (2 knots; 1.0 m/s)
Visibility: 2.17 miles (3.49 km)
Ceiling: at least 12,000 feet AGL
Clouds: sky clear below 12,000 feet AGL
Weather: BR  (mist)

METAR text: LHBP 180130Z VRB02KT 3500 BR NSC M03/M03 Q1026 NOSIG
Conditions at: LHBP (BUDAPEST/FERIHEG, HU) observed 0130 UTC 18 February 2019
Temperature: -3.0°C (27°F)
Dewpoint: -3.0°C (27°F) [RH = 100%]
Pressure (altimeter): 30.30 inches Hg (1026.0 mb)
Winds: variable direction winds at 2 MPH (2 knots; 1.0 m/s)
Visibility: 2.17 miles (3.49 km)
Ceiling: at least 12,000 feet AGL
Clouds: sky clear below 12,000 feet AGL
Weather: BR  (mist)

METAR text: LHBP 180100Z 00000KT 3500 BR NSC M04/M04 Q1026 NOSIG
Conditions at: LHBP (BUDAPEST/FERIHEG, HU) observed 0100 UTC 18 February 2019
Temperature: -4.0°C (25°F)
Dewpoint: -4.0°C (25°F) [RH = 100%]
Pressure (altimeter): 30.30 inches Hg (1026.0 mb)
Winds: calm
Visibility: 2.17 miles (3.49 km)
Ceiling: at least 12,000 feet AGL
Clouds: sky clear below 12,000 feet AGL
Weather: BR  (mist)

METAR text: LHBP 180030Z VRB01KT 3500 BR NSC M03/M03 Q1026 NOSIG
Conditions at: LHBP (BUDAPEST/FERIHEG, HU) observed 0030 UTC 18 February 2019
Temperature: -3.0°C (27°F)
Dewpoint: -3.0°C (27°F) [RH = 100%]
Pressure (altimeter): 30.30 inches Hg (1026.0 mb)
Winds: variable direction winds at 1 MPH (1 knots; 0.5 m/s)
Visibility: 2.17 miles (3.49 km)
Ceiling: at least 12,000 feet AGL
Clouds: sky clear below 12,000 feet AGL
Weather: BR  (mist)

METAR text: LHBP 180000Z VRB03KT 3500 BR NSC M02/M02 Q1026 NOSIG
Conditions at: LHBP (BUDAPEST/FERIHEG, HU) observed 0000 UTC 18 February 2019
Temperature: -2.0°C (28°F)
Dewpoint: -2.0°C (28°F) [RH = 100%]
Pressure (altimeter): 30.30 inches Hg (1026.0 mb)
Winds: variable direction winds at 3 MPH (3 knots; 1.5 m/s)
Visibility: 2.17 miles (3.49 km)
Ceiling: at least 12,000 feet AGL
Clouds: sky clear below 12,000 feet AGL
Weather: BR  (mist)

METAR text: LHBP 172330Z VRB01KT 3500 BR NSC M03/M03 Q1026 NOSIG
Conditions at: LHBP (BUDAPEST/FERIHEG, HU) observed 2330 UTC 17 February 2019
Temperature: -3.0°C (27°F)
Dewpoint: -3.0°C (27°F) [RH = 100%]
Pressure (altimeter): 30.30 inches Hg (1026.0 mb)
Winds: variable direction winds at 1 MPH (1 knots; 0.5 m/s)
Visibility: 2.17 miles (3.49 km)
Ceiling: at least 12,000 feet AGL
Clouds: sky clear below 12,000 feet AGL
Weather: BR  (mist)

METAR text: LHBP 172300Z VRB02KT 4000 BR NSC M03/M03 Q1026 NOSIG
Conditions at: LHBP (BUDAPEST/FERIHEG, HU) observed 2300 UTC 17 February 2019
Temperature: -3.0°C (27°F)
Dewpoint: -3.0°C (27°F) [RH = 100%]
Pressure (altimeter): 30.30 inches Hg (1026.0 mb)
Winds: variable direction winds at 2 MPH (2 knots; 1.0 m/s)
Visibility: 2.49 miles (4.01 km)
Ceiling: at least 12,000 feet AGL
Clouds: sky clear below 12,000 feet AGL
Weather: BR  (mist)

METAR text: LHBP 172230Z VRB02KT 4000 BR NSC M02/M02 Q1026 NOSIG
Conditions at: LHBP (BUDAPEST/FERIHEG, HU) observed 2230 UTC 17 February 2019
Temperature: -2.0°C (28°F)
Dewpoint: -2.0°C (28°F) [RH = 100%]
Pressure (altimeter): 30.30 inches Hg (1026.0 mb)
Winds: variable direction winds at 2 MPH (2 knots; 1.0 m/s)
Visibility: 2.49 miles (4.01 km)
Ceiling: at least 12,000 feet AGL
Clouds: sky clear below 12,000 feet AGL
Weather: BR  (mist)

METAR text: LHBP 172200Z VRB02KT 4000 BR NSC M00/M00 Q1026 NOSIG
Conditions at: LHBP (BUDAPEST/FERIHEG, HU) observed 2200 UTC 17 February 2019
Temperature: 0.0°C (32°F)
Dewpoint: 0.0°C (32°F) [RH = 100%]
Pressure (altimeter): 30.30 inches Hg (1026.0 mb)
Winds: variable direction winds at 2 MPH (2 knots; 1.0 m/s)
Visibility: 2.49 miles (4.01 km)
Ceiling: at least 12,000 feet AGL
Clouds: sky clear below 12,000 feet AGL
Weather: BR  (mist)

METAR text: LHBP 172130Z VRB02KT 4500 BR NSC M02/M02 Q1027 NOSIG
Conditions at: LHBP (BUDAPEST/FERIHEG, HU) observed 2130 UTC 17 February 2019
Temperature: -2.0°C (28°F)
Dewpoint: -2.0°C (28°F) [RH = 100%]
Pressure (altimeter): 30.32 inches Hg (1027.0 mb)
Winds: variable direction winds at 2 MPH (2 knots; 1.0 m/s)
Visibility: 2.80 miles (4.51 km)
Ceiling: at least 12,000 feet AGL
Clouds: sky clear below 12,000 feet AGL
Weather: BR  (mist)

METAR text: LHBP 172100Z VRB02KT 5000 BR NSC 01/01 Q1027 TEMPO 4000 BR
Conditions at: LHBP (BUDAPEST/FERIHEG, HU) observed 2100 UTC 17 February 2019
Temperature: 1.0°C (34°F)
Dewpoint: 1.0°C (34°F) [RH = 100%]
Pressure (altimeter): 30.32 inches Hg (1027.0 mb)
Winds: variable direction winds at 2 MPH (2 knots; 1.0 m/s)
Visibility: 3 miles ( 5 km)
Ceiling: at least 12,000 feet AGL
Clouds: sky clear below 12,000 feet AGL
Weather: BR  (mist)

METAR text: LHBP 172030Z VRB03KT 6000 NSC M01/M02 Q1027 TEMPO FM2100 4500 BR
Conditions at: LHBP (BUDAPEST/FERIHEG, HU) observed 2030 UTC 17 February 2019
Temperature: -1.0°C (30°F)
Dewpoint: -2.0°C (28°F) [RH = 93%]
Pressure (altimeter): 30.32 inches Hg (1027.0 mb)
Winds: variable direction winds at 3 MPH (3 knots; 1.5 m/s)
Visibility: 4 miles ( 6 km)
Ceiling: at least 12,000 feet AGL
Clouds: sky clear below 12,000 feet AGL
Weather: no significant weather observed at this time

METAR text: LHBP 172000Z VRB02KT 7000 NSC 02/01 Q1027 TEMPO FM2100 4500 BR
Conditions at: LHBP (BUDAPEST/FERIHEG, HU) observed 2000 UTC 17 February 2019
Temperature: 2.0°C (36°F)
Dewpoint: 1.0°C (34°F) [RH = 93%]
Pressure (altimeter): 30.32 inches Hg (1027.0 mb)
Winds: variable direction winds at 2 MPH (2 knots; 1.0 m/s)
Visibility: 4 miles ( 7 km)
Ceiling: at least 12,000 feet AGL
Clouds: sky clear below 12,000 feet AGL
Weather: no significant weather observed at this time

METAR text: LHBP 171930Z VRB02KT 8000 NSC M01/M01 Q1027 NOSIG
Conditions at: LHBP (BUDAPEST/FERIHEG, HU) observed 1930 UTC 17 February 2019
Temperature: -1.0°C (30°F)
Dewpoint: -1.0°C (30°F) [RH = 100%]
Pressure (altimeter): 30.32 inches Hg (1027.0 mb)
Winds: variable direction winds at 2 MPH (2 knots; 1.0 m/s)
Visibility: 5 miles ( 8 km)
Ceiling: at least 12,000 feet AGL
Clouds: sky clear below 12,000 feet AGL
Weather: no significant weather observed at this time

METAR text: LHBP 171900Z VRB01KT 8000 NSC 00/M01 Q1026 NOSIG
Conditions at: LHBP (BUDAPEST/FERIHEG, HU) observed 1900 UTC 17 February 2019
Temperature: 0.0°C (32°F)
Dewpoint: -1.0°C (30°F) [RH = 93%]
Pressure (altimeter): 30.30 inches Hg (1026.0 mb)
Winds: variable direction winds at 1 MPH (1 knots; 0.5 m/s)
Visibility: 5 miles ( 8 km)
Ceiling: at least 12,000 feet AGL
Clouds: sky clear below 12,000 feet AGL
Weather: no significant weather observed at this time

METAR text: LHBP 171830Z VRB01KT CAVOK 02/01 Q1026 NOSIG
Conditions at: LHBP (BUDAPEST/FERIHEG, HU) observed 1830 UTC 17 February 2019
Temperature: 2.0°C (36°F)
Dewpoint: 1.0°C (34°F) [RH = 93%]
Pressure (altimeter): 30.30 inches Hg (1026.0 mb)
Winds: variable direction winds at 1 MPH (1 knots; 0.5 m/s)
Visibility: 6 or more miles (10+ km)
Ceiling: ceiling and visibility are OK
Clouds: unknown
Weather: no significant weather observed at this time

METAR text: LHBP 171800Z VRB02KT CAVOK 06/03 Q1026 NOSIG
Conditions at: LHBP (BUDAPEST/FERIHEG, HU) observed 1800 UTC 17 February 2019
Temperature: 6.0°C (43°F)
Dewpoint: 3.0°C (37°F) [RH = 81%]
Pressure (altimeter): 30.30 inches Hg (1026.0 mb)
Winds: variable direction winds at 2 MPH (2 knots; 1.0 m/s)
Visibility: 6 or more miles (10+ km)
Ceiling: ceiling and visibility are OK
Clouds: unknown
Weather: no significant weather observed at this time

METAR text: LHBP 171730Z VRB01KT CAVOK 07/03 Q1026 NOSIG
Conditions at: LHBP (BUDAPEST/FERIHEG, HU) observed 1730 UTC 17 February 2019
Temperature: 7.0°C (45°F)
Dewpoint: 3.0°C (37°F) [RH = 76%]
Pressure (altimeter): 30.30 inches Hg (1026.0 mb)
Winds: variable direction winds at 1 MPH (1 knots; 0.5 m/s)
Visibility: 6 or more miles (10+ km)
Ceiling: ceiling and visibility are OK
Clouds: unknown
Weather: no significant weather observed at this time

METAR text: LHBP 171700Z VRB02KT CAVOK 05/01 Q1026 NOSIG
Conditions at: LHBP (BUDAPEST/FERIHEG, HU) observed 1700 UTC 17 February 2019
Temperature: 5.0°C (41°F)
Dewpoint: 1.0°C (34°F) [RH = 75%]
Pressure (altimeter): 30.30 inches Hg (1026.0 mb)
Winds: variable direction winds at 2 MPH (2 knots; 1.0 m/s)
Visibility: 6 or more miles (10+ km)
Ceiling: ceiling and visibility are OK
Clouds: unknown
Weather: no significant weather observed at this time

METAR text: LHBP 171630Z VRB02KT CAVOK 09/02 Q1026 NOSIG
Conditions at: LHBP (BUDAPEST/FERIHEG, HU) observed 1630 UTC 17 February 2019
Temperature: 9.0°C (48°F)
Dewpoint: 2.0°C (36°F) [RH = 61%]
Pressure (altimeter): 30.30 inches Hg (1026.0 mb)
Winds: variable direction winds at 2 MPH (2 knots; 1.0 m/s)
Visibility: 6 or more miles (10+ km)
Ceiling: ceiling and visibility are OK
Clouds: unknown
Weather: no significant weather observed at this time

METAR text: LHBP 171600Z VRB03KT CAVOK 11/03 Q1026 NOSIG
Conditions at: LHBP (BUDAPEST/FERIHEG, HU) observed 1600 UTC 17 February 2019
Temperature: 11.0°C (52°F)
Dewpoint: 3.0°C (37°F) [RH = 58%]
Pressure (altimeter): 30.30 inches Hg (1026.0 mb)
Winds: variable direction winds at 3 MPH (3 knots; 1.5 m/s)
Visibility: 6 or more miles (10+ km)
Ceiling: ceiling and visibility are OK
Clouds: unknown
Weather: no significant weather observed at this time

METAR text: LHBP 171530Z 19005KT CAVOK 12/03 Q1026 NOSIG
Conditions at: LHBP (BUDAPEST/FERIHEG, HU) observed 1530 UTC 17 February 2019
Temperature: 12.0°C (54°F)
Dewpoint: 3.0°C (37°F) [RH = 54%]
Pressure (altimeter): 30.30 inches Hg (1026.0 mb)
Winds: from the S (190 degrees) at 6 MPH (5 knots; 2.6 m/s)
Visibility: 6 or more miles (10+ km)
Ceiling: ceiling and visibility are OK
Clouds: unknown
Weather: no significant weather observed at this time

METAR text: LHBP 171500Z 19005KT 150V220 CAVOK 13/03 Q1026 NOSIG
Conditions at: LHBP (BUDAPEST/FERIHEG, HU) observed 1500 UTC 17 February 2019
Temperature: 13.0°C (55°F)
Dewpoint: 3.0°C (37°F) [RH = 51%]
Pressure (altimeter): 30.30 inches Hg (1026.0 mb)
Winds: from the S (190 degrees) at 6 MPH (5 knots; 2.6 m/s)
Visibility: 6 or more miles (10+ km)
Ceiling: ceiling and visibility are OK
Clouds: unknown
Weather: no significant weather observed at this time

METAR text: LHBP 171430Z 20005KT CAVOK 13/04 Q1026 NOSIG
Conditions at: LHBP (BUDAPEST/FERIHEG, HU) observed 1430 UTC 17 February 2019
Temperature: 13.0°C (55°F)
Dewpoint: 4.0°C (39°F) [RH = 54%]
Pressure (altimeter): 30.30 inches Hg (1026.0 mb)
Winds: from the SSW (200 degrees) at 6 MPH (5 knots; 2.6 m/s)
Visibility: 6 or more miles (10+ km)
Ceiling: ceiling and visibility are OK
Clouds: unknown
Weather: no significant weather observed at this time

METAR text: LHBP 171400Z 21005KT 170V240 CAVOK 13/04 Q1027 NOSIG
Conditions at: LHBP (BUDAPEST/FERIHEG, HU) observed 1400 UTC 17 February 2019
Temperature: 13.0°C (55°F)
Dewpoint: 4.0°C (39°F) [RH = 54%]
Pressure (altimeter): 30.32 inches Hg (1027.0 mb)
Winds: from the SSW (210 degrees) at 6 MPH (5 knots; 2.6 m/s)
Visibility: 6 or more miles (10+ km)
Ceiling: ceiling and visibility are OK
Clouds: unknown
Weather: no significant weather observed at this time

METAR text: LHBP 171330Z 19006KT 150V220 CAVOK 13/05 Q1027 NOSIG
Conditions at: LHBP (BUDAPEST/FERIHEG, HU) observed 1330 UTC 17 February 2019
Temperature: 13.0°C (55°F)
Dewpoint: 5.0°C (41°F) [RH = 58%]
Pressure (altimeter): 30.32 inches Hg (1027.0 mb)
Winds: from the S (190 degrees) at 7 MPH (6 knots; 3.1 m/s)
Visibility: 6 or more miles (10+ km)
Ceiling: ceiling and visibility are OK
Clouds: unknown
Weather: no significant weather observed at this time

METAR text: LHBP 171300Z 24005KT 200V270 CAVOK 12/04 Q1027 NOSIG
Conditions at: LHBP (BUDAPEST/FERIHEG, HU) observed 1300 UTC 17 February 2019
Temperature: 12.0°C (54°F)
Dewpoint: 4.0°C (39°F) [RH = 58%]
Pressure (altimeter): 30.32 inches Hg (1027.0 mb)
Winds: from the WSW (240 degrees) at 6 MPH (5 knots; 2.6 m/s)
Visibility: 6 or more miles (10+ km)
Ceiling: ceiling and visibility are OK
Clouds: unknown
Weather: no significant weather observed at this time

METAR text: LHBP 171230Z 23005KT 200V260 CAVOK 12/07 Q1027 NOSIG
Conditions at: LHBP (BUDAPEST/FERIHEG, HU) observed 1230 UTC 17 February 2019
Temperature: 12.0°C (54°F)
Dewpoint: 7.0°C (45°F) [RH = 71%]
Pressure (altimeter): 30.32 inches Hg (1027.0 mb)
Winds: from the SW (230 degrees) at 6 MPH (5 knots; 2.6 m/s)
Visibility: 6 or more miles (10+ km)
Ceiling: ceiling and visibility are OK
Clouds: unknown
Weather: no significant weather observed at this time

METAR text: LHBP 171200Z 21007KT 180V240 CAVOK 12/05 Q1028 NOSIG
Conditions at: LHBP (BUDAPEST/FERIHEG, HU) observed 1200 UTC 17 February 2019
Temperature: 12.0°C (54°F)
Dewpoint: 5.0°C (41°F) [RH = 62%]
Pressure (altimeter): 30.35 inches Hg (1028.0 mb)
Winds: from the SSW (210 degrees) at 8 MPH (7 knots; 3.6 m/s)
Visibility: 6 or more miles (10+ km)
Ceiling: ceiling and visibility are OK
Clouds: unknown
Weather: no significant weather observed at this time

METAR text: LHBP 171130Z 20006KT 150V230 9000 NSC 10/03 Q1028 NOSIG
Conditions at: LHBP (BUDAPEST/FERIHEG, HU) observed 1130 UTC 17 February 2019
Temperature: 10.0°C (50°F)
Dewpoint: 3.0°C (37°F) [RH = 62%]
Pressure (altimeter): 30.35 inches Hg (1028.0 mb)
Winds: from the SSW (200 degrees) at 7 MPH (6 knots; 3.1 m/s)
Visibility: 6 miles ( 9 km)
Ceiling: at least 12,000 feet AGL
Clouds: sky clear below 12,000 feet AGL
Weather: no significant weather observed at this time

METAR text: LHBP 171100Z 20004KT 150V240 6000 NSC 09/05 Q1029 NOSIG
Conditions at: LHBP (BUDAPEST/FERIHEG, HU) observed 1100 UTC 17 February 2019
Temperature: 9.0°C (48°F)
Dewpoint: 5.0°C (41°F) [RH = 76%]
Pressure (altimeter): 30.38 inches Hg (1029.0 mb)
Winds: from the SSW (200 degrees) at 5 MPH (4 knots; 2.1 m/s)
Visibility: 4 miles ( 6 km)
Ceiling: at least 12,000 feet AGL
Clouds: sky clear below 12,000 feet AGL
Weather: no significant weather observed at this time

METAR text: LHBP 171030Z VRB03KT 5000 BR NSC 06/06 Q1029 BECMG 8000 NSW
Conditions at: LHBP (BUDAPEST/FERIHEG, HU) observed 1030 UTC 17 February 2019
Temperature: 6.0°C (43°F)
Dewpoint: 6.0°C (43°F) [RH = 100%]
Pressure (altimeter): 30.38 inches Hg (1029.0 mb)
Winds: variable direction winds at 3 MPH (3 knots; 1.5 m/s)
Visibility: 3 miles ( 5 km)
Ceiling: at least 12,000 feet AGL
Clouds: sky clear below 12,000 feet AGL
Weather: BR  (mist)

METAR text: LHBP 171005Z VRB02KT 3200 BR FEW002 05/05 Q1029 BECMG 6000 NSW NSC
Conditions at: LHBP (BUDAPEST/FERIHEG, HU) observed 1005 UTC 17 February 2019
Temperature: 5.0°C (41°F)
Dewpoint: 5.0°C (41°F) [RH = 100%]
Pressure (altimeter): 30.38 inches Hg (1029.0 mb)
Winds: variable direction winds at 2 MPH (2 knots; 1.0 m/s)
Visibility: 1.99 miles (3.20 km)
Ceiling: at least 12,000 feet AGL
Clouds: few clouds at 200 feet AGL
Weather: BR  (mist)

METAR text: LHBP 171000Z VRB03KT 2500 BR FEW002 04/04 Q1029 BECMG 6000 NSW NSC
Conditions at: LHBP (BUDAPEST/FERIHEG, HU) observed 1000 UTC 17 February 2019
Temperature: 4.0°C (39°F)
Dewpoint: 4.0°C (39°F) [RH = 100%]
Pressure (altimeter): 30.38 inches Hg (1029.0 mb)
Winds: variable direction winds at 3 MPH (3 knots; 1.5 m/s)
Visibility: 1.55 miles (2.49 km)
Ceiling: at least 12,000 feet AGL
Clouds: few clouds at 200 feet AGL
Weather: BR  (mist)

METAR text: LHBP 170942Z VRB02KT 1500 R31R/0750U BCFG BR SCT002 02/02 Q1029 BECMG 5000 BR NSC
Conditions at: LHBP (BUDAPEST/FERIHEG, HU) observed 0942 UTC 17 February 2019
Temperature: 2.0°C (36°F)
Dewpoint: 2.0°C (36°F) [RH = 100%]
Pressure (altimeter): 30.38 inches Hg (1029.0 mb)
Winds: variable direction winds at 2 MPH (2 knots; 1.0 m/s)
Visibility: 0.93 miles (1.50 km)
Ceiling: at least 12,000 feet AGL
Clouds: scattered clouds at 200 feet AGL
Weather: BCFG BR  (patches of fog, mist)

METAR text: LHBP 170937Z VRB02KT 1200 R31L/P1500N R31R/0500N BCFG BR BKN002 02/02 Q1029 BECMG 5000 BR NSC
Conditions at: LHBP (BUDAPEST/FERIHEG, HU) observed 0937 UTC 17 February 2019
Temperature: 2.0°C (36°F)
Dewpoint: 2.0°C (36°F) [RH = 100%]
Pressure (altimeter): 30.38 inches Hg (1029.0 mb)
Winds: variable direction winds at 2 MPH (2 knots; 1.0 m/s)
Visibility: 0.75 miles (1.21 km)
Ceiling: 200 feet AGL
Clouds: broken clouds at 200 feet AGL
Weather: BCFG BR  (patches of fog, mist)

METAR text: LHBP 170930Z VRB01KT 0800 R31L/1100N R31R/0300N FG BKN002 01/01 Q1029 BECMG 3000 BR NSC
Conditions at: LHBP (BUDAPEST/FERIHEG, HU) observed 0930 UTC 17 February 2019
Temperature: 1.0°C (34°F)
Dewpoint: 1.0°C (34°F) [RH = 100%]
Pressure (altimeter): 30.38 inches Hg (1029.0 mb)
Winds: variable direction winds at 1 MPH (1 knots; 0.5 m/s)
Visibility: 0.50 miles (0.80 km)
Ceiling: 200 feet AGL
Clouds: broken clouds at 200 feet AGL
Weather: FG  (fog)

METAR text: LHBP 170924Z 00000KT 0400 R31L/0700U R31R/0300N FG OVC002 01/01 Q1029 BECMG 3000 BR NSC
Conditions at: LHBP (BUDAPEST/FERIHEG, HU) observed 0924 UTC 17 February 2019
Temperature: 1.0°C (34°F)
Dewpoint: 1.0°C (34°F) [RH = 100%]
Pressure (altimeter): 30.38 inches Hg (1029.0 mb)
Winds: calm
Visibility: 0.25 miles (0.40 km)
Ceiling: 200 feet AGL
Clouds: overcast cloud deck at 200 feet AGL
Weather: FG  (fog)

METAR text: LHBP 170911Z VRB02KT 0300 R31L/0375N R31R/0300N FG VV002 01/01 Q1029 BECMG 1500 BR NSC
Conditions at: LHBP (BUDAPEST/FERIHEG, HU) observed 0911 UTC 17 February 2019
Temperature: 1.0°C (34°F)
Dewpoint: 1.0°C (34°F) [RH = 100%]
Pressure (altimeter): 30.38 inches Hg (1029.0 mb)
Winds: variable direction winds at 2 MPH (2 knots; 1.0 m/s)
Visibility: 0.19 miles (0.31 km)
Ceiling: indefinite ceiling with vertical visibility of 200 feet AGL
Clouds: obscured sky
Weather: FG  (fog)

METAR text: LHBP 170900Z VRB02KT 0200 R31L/0300N R31R/0200N FG VV001 01/01 Q1029 BECMG 1500 BR NSC
Conditions at: LHBP (BUDAPEST/FERIHEG, HU) observed 0900 UTC 17 February 2019
Temperature: 1.0°C (34°F)
Dewpoint: 1.0°C (34°F) [RH = 100%]
Pressure (altimeter): 30.38 inches Hg (1029.0 mb)
Winds: variable direction winds at 2 MPH (2 knots; 1.0 m/s)
Visibility: 0.12 miles (0.19 km)
Ceiling: indefinite ceiling with vertical visibility of 100 feet AGL
Clouds: obscured sky
Weather: FG  (fog)

METAR text: LHBP 170830Z VRB02KT 0150 R31L/0200N R31R/0200N FZFG VV001 M01/M01 Q1029 BECMG 1500 BR NSC
Conditions at: LHBP (BUDAPEST/FERIHEG, HU) observed 0830 UTC 17 February 2019
Temperature: -1.0°C (30°F)
Dewpoint: -1.0°C (30°F) [RH = 100%]
Pressure (altimeter): 30.38 inches Hg (1029.0 mb)
Winds: variable direction winds at 2 MPH (2 knots; 1.0 m/s)
Visibility: 0.09 miles (0.14 km)
Ceiling: indefinite ceiling with vertical visibility of 100 feet AGL
Clouds: obscured sky
Weather: FZFG  (freezing fog)

METAR text: LHBP 170800Z VRB03KT 0100 R31L/0150N R31R/0175N FZFG VV001 M01/M01 Q1029 TEMPO 0800 FG NSC
Conditions at: LHBP (BUDAPEST/FERIHEG, HU) observed 0800 UTC 17 February 2019
Temperature: -1.0°C (30°F)
Dewpoint: -1.0°C (30°F) [RH = 100%]
Pressure (altimeter): 30.38 inches Hg (1029.0 mb)
Winds: variable direction winds at 3 MPH (3 knots; 1.5 m/s)
Visibility: 0.06 miles (0.10 km)
Ceiling: indefinite ceiling with vertical visibility of 100 feet AGL
Clouds: obscured sky
Weather: FZFG  (freezing fog)

METAR text: LHBP 170730Z VRB02KT 0100 R31L/0175N R31R/0150N FZFG VV001 M02/M02 Q1029 TEMPO 0800 FG NSC
Conditions at: LHBP (BUDAPEST/FERIHEG, HU) observed 0730 UTC 17 February 2019
Temperature: -2.0°C (28°F)
Dewpoint: -2.0°C (28°F) [RH = 100%]
Pressure (altimeter): 30.38 inches Hg (1029.0 mb)
Winds: variable direction winds at 2 MPH (2 knots; 1.0 m/s)
Visibility: 0.06 miles (0.10 km)
Ceiling: indefinite ceiling with vertical visibility of 100 feet AGL
Clouds: obscured sky
Weather: FZFG  (freezing fog)

METAR text: LHBP 170700Z 00000KT 0100 R13L/0150N R13R/0225N FZFG VV001 M02/M02 Q1029 TEMPO 0400 FG SCT002
Conditions at: LHBP (BUDAPEST/FERIHEG, HU) observed 0700 UTC 17 February 2019
Temperature: -2.0°C (28°F)
Dewpoint: -2.0°C (28°F) [RH = 100%]
Pressure (altimeter): 30.38 inches Hg (1029.0 mb)
Winds: calm
Visibility: 0.06 miles (0.10 km)
Ceiling: indefinite ceiling with vertical visibility of 100 feet AGL
Clouds: obscured sky
Weather: FZFG  (freezing fog)

METAR text: LHBP 170630Z VRB03KT 0100 R13L/0150N R13R/0200N FZFG VV001 M03/M03 Q1029 TEMPO 0400 FZFG SCT002
Conditions at: LHBP (BUDAPEST/FERIHEG, HU) observed 0630 UTC 17 February 2019
Temperature: -3.0°C (27°F)
Dewpoint: -3.0°C (27°F) [RH = 100%]
Pressure (altimeter): 30.38 inches Hg (1029.0 mb)
Winds: variable direction winds at 3 MPH (3 knots; 1.5 m/s)
Visibility: 0.06 miles (0.10 km)
Ceiling: indefinite ceiling with vertical visibility of 100 feet AGL
Clouds: obscured sky
Weather: FZFG  (freezing fog)

METAR text: LHBP 170600Z VRB01KT 0100 R13L/0175N R13R/0225N FZFG VV001 M03/M03 Q1029 NOSIG
Conditions at: LHBP (BUDAPEST/FERIHEG, HU) observed 0600 UTC 17 February 2019
Temperature: -3.0°C (27°F)
Dewpoint: -3.0°C (27°F) [RH = 100%]
Pressure (altimeter): 30.38 inches Hg (1029.0 mb)
Winds: variable direction winds at 1 MPH (1 knots; 0.5 m/s)
Visibility: 0.06 miles (0.10 km)
Ceiling: indefinite ceiling with vertical visibility of 100 feet AGL
Clouds: obscured sky
Weather: FZFG  (freezing fog)

METAR text: LHBP 170530Z 00000KT 0100 R13L/0175N R13R/0175N FZFG SCT002 M03/M03 Q1029 TEMPO BKN002
Conditions at: LHBP (BUDAPEST/FERIHEG, HU) observed 0530 UTC 17 February 2019
Temperature: -3.0°C (27°F)
Dewpoint: -3.0°C (27°F) [RH = 100%]
Pressure (altimeter): 30.38 inches Hg (1029.0 mb)
Winds: calm
Visibility: 0.06 miles (0.10 km)
Ceiling: at least 12,000 feet AGL
Clouds: scattered clouds at 200 feet AGL
Weather: FZFG  (freezing fog)

METAR text: LHBP 170500Z 00000KT 0200 R13L/0175N R13R/0150N FZFG FEW002 M03/M03 Q1029 TEMPO 0100 FZFG BKN002
Conditions at: LHBP (BUDAPEST/FERIHEG, HU) observed 0500 UTC 17 February 2019
Temperature: -3.0°C (27°F)
Dewpoint: -3.0°C (27°F) [RH = 100%]
Pressure (altimeter): 30.38 inches Hg (1029.0 mb)
Winds: calm
Visibility: 0.12 miles (0.19 km)
Ceiling: at least 12,000 feet AGL
Clouds: few clouds at 200 feet AGL
Weather: FZFG  (freezing fog)

METAR text: LHBP 170430Z VRB01KT 0200 R13L/0150N FZFG NSC M05/M05 Q1029 TEMPO 0100 FZFG BKN002
Conditions at: LHBP (BUDAPEST/FERIHEG, HU) observed 0430 UTC 17 February 2019
Temperature: -5.0°C (23°F)
Dewpoint: -5.0°C (23°F) [RH = 100%]
Pressure (altimeter): 30.38 inches Hg (1029.0 mb)
Winds: variable direction winds at 1 MPH (1 knots; 0.5 m/s)
Visibility: 0.12 miles (0.19 km)
Ceiling: at least 12,000 feet AGL
Clouds: sky clear below 12,000 feet AGL
Weather: FZFG  (freezing fog)

METAR text: LHBP 170400Z 00000KT 0200 R13L/0225N R31R/0200N FZFG NSC M04/M04 Q1029 TEMPO 0100 FZFG BKN002
Conditions at: LHBP (BUDAPEST/FERIHEG, HU) observed 0400 UTC 17 February 2019
Temperature: -4.0°C (25°F)
Dewpoint: -4.0°C (25°F) [RH = 100%]
Pressure (altimeter): 30.38 inches Hg (1029.0 mb)
Winds: calm
Visibility: 0.12 miles (0.19 km)
Ceiling: at least 12,000 feet AGL
Clouds: sky clear below 12,000 feet AGL
Weather: FZFG  (freezing fog)

METAR text: LHBP 170330Z VRB02KT 0200 R13L/0150N R31R/0175N FZFG NSC M03/M03 Q1029 TEMPO 0100 FZFG BKN002
Conditions at: LHBP (BUDAPEST/FERIHEG, HU) observed 0330 UTC 17 February 2019
Temperature: -3.0°C (27°F)
Dewpoint: -3.0°C (27°F) [RH = 100%]
Pressure (altimeter): 30.38 inches Hg (1029.0 mb)
Winds: variable direction winds at 2 MPH (2 knots; 1.0 m/s)
Visibility: 0.12 miles (0.19 km)
Ceiling: at least 12,000 feet AGL
Clouds: sky clear below 12,000 feet AGL
Weather: FZFG  (freezing fog)

METAR text: LHBP 170300Z 00000KT 0400 R13L/0150N R31R/0175N FZFG NSC M04/M04 Q1029 BECMG 0300 FZFG
Conditions at: LHBP (BUDAPEST/FERIHEG, HU) observed 0300 UTC 17 February 2019
Temperature: -4.0°C (25°F)
Dewpoint: -4.0°C (25°F) [RH = 100%]
Pressure (altimeter): 30.38 inches Hg (1029.0 mb)
Winds: calm
Visibility: 0.25 miles (0.40 km)
Ceiling: at least 12,000 feet AGL
Clouds: sky clear below 12,000 feet AGL
Weather: FZFG  (freezing fog)

METAR text: LHBP 170234Z VRB01KT 0600 R13L/0225N R31R/0325N FZFG NSC M04/M04 Q1029 BECMG 0500 FZFG
Conditions at: LHBP (BUDAPEST/FERIHEG, HU) observed 0234 UTC 17 February 2019
Temperature: -4.0°C (25°F)
Dewpoint: -4.0°C (25°F) [RH = 100%]
Pressure (altimeter): 30.38 inches Hg (1029.0 mb)
Winds: variable direction winds at 1 MPH (1 knots; 0.5 m/s)
Visibility: 0.37 miles (0.60 km)
Ceiling: at least 12,000 feet AGL
Clouds: sky clear below 12,000 feet AGL
Weather: FZFG  (freezing fog)

METAR text: LHBP 170230Z 00000KT 0800 R13L/0200N R31R/0600N FZFG NSC M04/M04 Q1029 BECMG 0500 FZFG
Conditions at: LHBP (BUDAPEST/FERIHEG, HU) observed 0230 UTC 17 February 2019
Temperature: -4.0°C (25°F)
Dewpoint: -4.0°C (25°F) [RH = 100%]
Pressure (altimeter): 30.38 inches Hg (1029.0 mb)
Winds: calm
Visibility: 0.50 miles (0.80 km)
Ceiling: at least 12,000 feet AGL
Clouds: sky clear below 12,000 feet AGL
Weather: FZFG  (freezing fog)

METAR text: LHBP 170200Z 00000KT 1300 R13L/0250N R31R/0600U FZBCFG BR NSC M04/M04 Q1029 BECMG 0500 FZFG
Conditions at: LHBP (BUDAPEST/FERIHEG, HU) observed 0200 UTC 17 February 2019
Temperature: -4.0°C (25°F)
Dewpoint: -4.0°C (25°F) [RH = 100%]
Pressure (altimeter): 30.38 inches Hg (1029.0 mb)
Winds: calm
Visibility: 0.81 miles (1.30 km)
Ceiling: at least 12,000 feet AGL
Clouds: sky clear below 12,000 feet AGL
Weather: BCFG BR  (patches of fog, mist)

METAR text: LHBP 170130Z 00000KT 1800 R13L/0250N R31R/0400N FZBCFG BR NSC M04/M04 Q1029 BECMG 0500 FZFG
Conditions at: LHBP (BUDAPEST/FERIHEG, HU) observed 0130 UTC 17 February 2019
Temperature: -4.0°C (25°F)
Dewpoint: -4.0°C (25°F) [RH = 100%]
Pressure (altimeter): 30.38 inches Hg (1029.0 mb)
Winds: calm
Visibility: 1.12 miles (1.80 km)
Ceiling: at least 12,000 feet AGL
Clouds: sky clear below 12,000 feet AGL
Weather: BCFG BR  (patches of fog, mist)

METAR text: LHBP 170100Z VRB02KT 2500 R13L/0325N FZBCFG BR NSC M03/M03 Q1029 BECMG 1200 FZBCFG BR
Conditions at: LHBP (BUDAPEST/FERIHEG, HU) observed 0100 UTC 17 February 2019
Temperature: -3.0°C (27°F)
Dewpoint: -3.0°C (27°F) [RH = 100%]
Pressure (altimeter): 30.38 inches Hg (1029.0 mb)
Winds: variable direction winds at 2 MPH (2 knots; 1.0 m/s)
Visibility: 1.55 miles (2.49 km)
Ceiling: at least 12,000 feet AGL
Clouds: sky clear below 12,000 feet AGL
Weather: FZBCFG BR  (unknown weather, mist)

METAR text: LHBP 170043Z VRB01KT 3000 R13L/0550D FZBCFG BR NSC M02/M02 Q1029 BECMG 2000 FZBCFG BR
Conditions at: LHBP (BUDAPEST/FERIHEG, HU) observed 0043 UTC 17 February 2019
Temperature: -2.0°C (28°F)
Dewpoint: -2.0°C (28°F) [RH = 100%]
Pressure (altimeter): 30.38 inches Hg (1029.0 mb)
Winds: variable direction winds at 1 MPH (1 knots; 0.5 m/s)
Visibility: 1.86 miles (2.99 km)
Ceiling: at least 12,000 feet AGL
Clouds: sky clear below 12,000 feet AGL
Weather: BCFG BR  (patches of fog, mist)

METAR text: LHBP 170030Z VRB02KT 3000 R13L/1100U FZBCFG BR NSC M03/M03 Q1029 BECMG 2000 FZBCFG BR
Conditions at: LHBP (BUDAPEST/FERIHEG, HU) observed 0030 UTC 17 February 2019
Temperature: -3.0°C (27°F)
Dewpoint: -3.0°C (27°F) [RH = 100%]
Pressure (altimeter): 30.38 inches Hg (1029.0 mb)
Winds: variable direction winds at 2 MPH (2 knots; 1.0 m/s)
Visibility: 1.86 miles (2.99 km)
Ceiling: at least 12,000 feet AGL
Clouds: sky clear below 12,000 feet AGL
Weather: BCFG BR  (patches of fog, mist)

METAR text: LHBP 170000Z VRB01KT 3000 R13L/1000D FZBCFG BR NSC M03/M03 Q1030 BECMG 2000 FZBCFG BR
Conditions at: LHBP (BUDAPEST/FERIHEG, HU) observed 0000 UTC 17 February 2019
Temperature: -3.0°C (27°F)
Dewpoint: -3.0°C (27°F) [RH = 100%]
Pressure (altimeter): 30.41 inches Hg (1030.0 mb)
Winds: variable direction winds at 1 MPH (1 knots; 0.5 m/s)
Visibility: 1.86 miles (2.99 km)
Ceiling: at least 12,000 feet AGL
Clouds: sky clear below 12,000 feet AGL
Weather: BCFG BR  (patches of fog, mist)

METAR text: LHBP 162330Z VRB02KT 3000 FZBCFG BR NSC M02/M02 Q1030 BECMG 2000 FZBCFG BR
Conditions at: LHBP (BUDAPEST/FERIHEG, HU) observed 2330 UTC 16 February 2019
Temperature: -2.0°C (28°F)
Dewpoint: -2.0°C (28°F) [RH = 100%]
Pressure (altimeter): 30.41 inches Hg (1030.0 mb)
Winds: variable direction winds at 2 MPH (2 knots; 1.0 m/s)
Visibility: 1.86 miles (2.99 km)
Ceiling: at least 12,000 feet AGL
Clouds: sky clear below 12,000 feet AGL
Weather: FZBCFG BR  (unknown weather, mist)

METAR text: LHBP 162300Z VRB01KT 5000 BR NSC M02/M02 Q1030 NOSIG
Conditions at: LHBP (BUDAPEST/FERIHEG, HU) observed 2300 UTC 16 February 2019
Temperature: -2.0°C (28°F)
Dewpoint: -2.0°C (28°F) [RH = 100%]
Pressure (altimeter): 30.41 inches Hg (1030.0 mb)
Winds: variable direction winds at 1 MPH (1 knots; 0.5 m/s)
Visibility: 3 miles ( 5 km)
Ceiling: at least 12,000 feet AGL
Clouds: sky clear below 12,000 feet AGL
Weather: BR  (mist)

METAR text: LHBP 162230Z VRB02KT 5000 BR NSC M01/M01 Q1030 NOSIG
Conditions at: LHBP (BUDAPEST/FERIHEG, HU) observed 2230 UTC 16 February 2019
Temperature: -1.0°C (30°F)
Dewpoint: -1.0°C (30°F) [RH = 100%]
Pressure (altimeter): 30.41 inches Hg (1030.0 mb)
Winds: variable direction winds at 2 MPH (2 knots; 1.0 m/s)
Visibility: 3 miles ( 5 km)
Ceiling: at least 12,000 feet AGL
Clouds: sky clear below 12,000 feet AGL
Weather: BR  (mist)

METAR text: LHBP 162200Z VRB02KT 5000 BR NSC 00/00 Q1030 NOSIG
Conditions at: LHBP (BUDAPEST/FERIHEG, HU) observed 2200 UTC 16 February 2019
Temperature: 0.0°C (32°F)
Dewpoint: 0.0°C (32°F) [RH = 100%]
Pressure (altimeter): 30.41 inches Hg (1030.0 mb)
Winds: variable direction winds at 2 MPH (2 knots; 1.0 m/s)
Visibility: 3 miles ( 5 km)
Ceiling: at least 12,000 feet AGL
Clouds: sky clear below 12,000 feet AGL
Weather: BR  (mist)

METAR text: LHBP 162130Z VRB02KT 5000 BR NSC M02/M02 Q1030 NOSIG
Conditions at: LHBP (BUDAPEST/FERIHEG, HU) observed 2130 UTC 16 February 2019
Temperature: -2.0°C (28°F)
Dewpoint: -2.0°C (28°F) [RH = 100%]
Pressure (altimeter): 30.41 inches Hg (1030.0 mb)
Winds: variable direction winds at 2 MPH (2 knots; 1.0 m/s)
Visibility: 3 miles ( 5 km)
Ceiling: at least 12,000 feet AGL
Clouds: sky clear below 12,000 feet AGL
Weather: BR  (mist)

METAR text: LHBP 162100Z VRB02KT 8000 NSC M02/M02 Q1030 NOSIG
Conditions at: LHBP (BUDAPEST/FERIHEG, HU) observed 2100 UTC 16 February 2019
Temperature: -2.0°C (28°F)
Dewpoint: -2.0°C (28°F) [RH = 100%]
Pressure (altimeter): 30.41 inches Hg (1030.0 mb)
Winds: variable direction winds at 2 MPH (2 knots; 1.0 m/s)
Visibility: 5 miles ( 8 km)
Ceiling: at least 12,000 feet AGL
Clouds: sky clear below 12,000 feet AGL
Weather: no significant weather observed at this time

Forecast for: LHBP (BUDAPEST/FERIHEG, HU)
Text: TAF LHBP 180515Z 1806/1906 VRB02KT 3200 BR NSC
Forecast period: 0600 to 0800 UTC 18 February 2019
Forecast type: FROM: standard forecast or significant change
Winds: variable direction winds at 2 MPH (2 knots; 1.0 m/s)
Visibility: 1.99 miles (3.20 km)
Ceiling: unknown
Clouds: missing
Weather: BR  (mist)
Text: TEMPO 1806/1808 0300 FZFG VV001
Forecast period: 0600 to 0800 UTC 18 February 2019
Forecast type: TEMPORARY: The following changes expected for less than half the time period
Visibility: 0.19 miles (0.31 km)
Ceiling: indefinite ceiling with vertical visibility of 100 feet AGL
Clouds: obscured sky
Weather: FZFG  (freezing fog)
Text: BECMG 1808/1810 7000 NSW
Forecast period: 0800 to 1000 UTC 18 February 2019
Forecast type: BECOMING: Conditions expected to become as follows by 1000 UTC 18 February 2019
Winds: variable direction winds at 2 MPH (2 knots; 1.0 m/s)
Visibility: 4 miles (7 km)
Ceiling: unknown
Clouds: missing
Weather: NSW  (no significant weather)
Text: BECMG 1810/1812 14004KT CAVOK
Forecast period: 1000 to 1700 UTC 18 February 2019
Forecast type: BECOMING: Conditions expected to become as follows by 1200 UTC 18 February 2019
Winds: from the SE (140 degrees) at 5 MPH (4 knots; 2.1 m/s)
Visibility: 6 or more miles 10+ km)
Ceiling: unknown
Clouds: missing
Weather: NSW  (no significant weather)
Text: BECMG 1817/1819 08003KT
Forecast period: 1700 to 2200 UTC 18 February 2019
Forecast type: BECOMING: Conditions expected to become as follows by 1900 UTC 18 February 2019
Winds: from the E (80 degrees) at 3 MPH (3 knots; 1.5 m/s)
Visibility: 6 or more miles 10+ km)
Ceiling: unknown
Clouds: missing
Weather: NSW  (no significant weather)
Text: BECMG 1822/1901 4000 FZBCFG BR
Forecast period: 2200 UTC 18 February 2019 to 0400 UTC 19 February 2019
Forecast type: BECOMING: Conditions expected to become as follows by 0100 UTC 19 February 2019
Winds: from the E (80 degrees) at 3 MPH (3 knots; 1.5 m/s)
Visibility: 2.49 miles (4.01 km)
Ceiling: unknown
Clouds: missing
Weather: FZBCFG BR  (unknown weather, mist)
Text: BECMG 1904/1906 0400 FZFG BKN001
Forecast period: 0400 to 0600 UTC 19 February 2019
Forecast type: BECOMING: Conditions expected to become as follows by 0600 UTC 19 February 2019
Winds: from the E (80 degrees) at 3 MPH (3 knots; 1.5 m/s)
Visibility: 0.25 miles (0.40 km)
Ceiling: 100 feet AGL
Clouds: broken clouds at 100 feet AGL
Weather: FZFG  (freezing fog)